Time;durP1;ratioP1;P1;durP2;ratioP2;P2;SDS_P1;SDS_P2;PMS_P1;PMS_P2;Temp;Humidity;BMP_temperature;BMP_pressure;BME280_temperature;BME280_humidity;BME280_pressure;Samples;Min_cycle;Max_cycle;Signal;HPM_P1;HPM_P2
2022/04/09 00:20:33;;;;;;;2.53;0.93;;;;;;;2.77;80.28;98380.50;1083274;54;52234;-81
2022/04/09 00:21:36;;;;;;;2.33;0.80;;;;;;;2.57;80.80;98401.56;1088827;54;20049;-80
2022/04/09 00:22:40;;;;;;;2.22;0.90;;;;;;;2.56;81.09;98405.16;1089178;54;20030;-81
2022/04/09 00:23:45;;;;;;;7.00;2.90;;;;;;;2.56;81.03;98410.44;1089436;54;20048;-80
2022/04/09 00:24:46;;;;;;;4.25;1.50;;;;;;;2.51;81.00;98412.66;1088958;54;20034;-79
2022/04/09 00:25:50;;;;;;;4.18;1.30;;;;;;;2.48;80.90;98419.03;1089150;54;20122;-79
2022/04/09 00:26:55;;;;;;;3.58;1.40;;;;;;;2.48;81.14;98428.72;1089008;54;20042;-80
2022/04/09 00:27:59;;;;;;;2.75;1.00;;;;;;;2.52;81.22;98432.78;1090405;46;20027;-80
2022/04/09 00:29:00;;;;;;;2.90;0.88;;;;;;;2.50;81.29;98442.63;1089410;54;20042;-80
2022/04/09 00:30:05;;;;;;;2.30;0.80;;;;;;;2.47;81.08;98453.44;1089725;46;20030;-81
2022/04/09 00:31:09;;;;;;;2.60;0.80;;;;;;;2.53;81.20;98455.56;1090316;38;20451;-80
2022/04/09 00:32:11;;;;;;;1.60;0.50;;;;;;;2.55;81.13;98461.53;1089335;54;20026;-82
2022/04/09 00:33:15;;;;;;;1.70;0.60;;;;;;;2.58;81.44;98463.91;1092162;46;20101;-80
2022/04/09 00:34:16;;;;;;;1.08;0.45;;;;;;;2.62;81.17;98462.69;1088955;54;20038;-80
2022/04/09 00:35:23;;;;;;;1.83;0.75;;;;;;;2.61;81.11;98468.94;1088649;54;20579;-81
2022/04/09 00:36:28;;;;;;;1.10;0.47;;;;;;;2.63;81.04;98472.28;1088442;54;20038;-80
2022/04/09 00:37:30;;;;;;;1.33;0.50;;;;;;;2.65;80.92;98472.13;1089710;38;20413;-80
2022/04/09 00:38:34;;;;;;;1.65;0.57;;;;;;;2.69;80.77;98475.34;1088867;54;20052;-80
2022/04/09 00:39:36;;;;;;;0.47;0.38;;;;;;;2.70;80.95;98480.47;1088809;54;20042;-80
2022/04/09 00:40:40;;;;;;;0.70;0.50;;;;;;;2.67;81.03;98483.41;1088797;54;20038;-80
2022/04/09 00:41:47;;;;;;;1.27;0.50;;;;;;;2.53;81.50;98497.78;1089268;54;20065;-80
2022/04/09 00:42:51;;;;;;;1.58;0.60;;;;;;;2.47;81.60;98501.78;1089748;54;20042;-80
2022/04/09 00:43:52;;;;;;;1.77;0.50;;;;;;;2.49;81.77;98509.53;1089194;54;20065;-80
2022/04/09 00:44:58;;;;;;;1.88;0.70;;;;;;;2.26;82.00;98516.78;1089038;54;20065;-81
2022/04/09 00:45:59;;;;;;;1.67;0.52;;;;;;;2.40;82.10;98510.31;1088596;47;20015;-80
2022/04/09 00:47:03;;;;;;;1.65;0.70;;;;;;;2.48;81.84;98518.41;1087839;54;20034;-80
2022/04/09 00:48:10;;;;;;;1.60;0.50;;;;;;;2.52;81.56;98516.34;1088047;54;20042;-81
2022/04/09 00:49:13;;;;;;;1.50;0.70;;;;;;;2.57;81.63;98525.56;1087964;54;20065;-81
2022/04/09 00:50:18;;;;;;;2.10;0.75;;;;;;;2.60;81.57;98524.44;1090429;39;20609;-80
2022/04/09 00:51:22;;;;;;;2.55;1.00;;;;;;;2.64;81.26;98517.97;1088154;54;20053;-81
2022/04/09 00:52:29;;;;;;;1.73;0.70;;;;;;;2.63;81.04;98522.41;1088018;54;20034;-80
2022/04/09 00:53:34;;;;;;;2.20;0.77;;;;;;;2.61;81.32;98523.47;1092641;39;20595;-80
2022/04/09 00:54:45;;;;;;;2.88;1.23;;;;;;;2.49;81.71;98531.50;1090078;39;20573;-81
2022/04/09 00:57:19;;;;;;;2.50;1.05;;;;;;;2.26;82.65;98541.34;1088478;54;20041;-81
2022/04/09 00:58:23;;;;;;;;;;;;;;;2.15;83.22;98539.59;1088855;54;20058;-79
2022/04/09 00:59:39;;;;;;;2.55;1.02;;;;;;;2.15;82.94;98549.31;1088552;54;19927;-81
2022/04/09 01:00:56;;;;;;;3.85;1.90;;;;;;;2.12;83.37;98554.84;1088589;54;20022;-81
2022/04/09 01:02:04;;;;;;;3.10;1.52;;;;;;;2.11;83.29;98563.72;1088611;54;20041;-79
2022/04/09 01:03:05;;;;;;;3.03;1.20;;;;;;;2.33;82.69;98563.59;1088534;54;20141;-80
2022/04/09 01:04:16;;;;;;;2.95;1.20;;;;;;;2.44;82.74;98575.06;1088683;54;20038;-81
2022/04/09 01:05:18;;;;;;;2.92;1.10;;;;;;;2.25;82.79;98587.16;1088613;54;20022;-81
2022/04/09 01:06:25;;;;;;;2.90;1.10;;;;;;;2.10;83.22;98589.25;1088603;54;20019;-81
2022/04/09 01:07:52;;;;;;;2.42;1.20;;;;;;;2.21;83.52;98596.25;1092875;46;20015;-81
2022/04/09 01:08:57;;;;;;;2.78;1.10;;;;;;;2.40;82.81;98600.88;1089360;46;20051;-81
2022/04/09 01:10:01;;;;;;;2.72;1.00;;;;;;;2.25;83.05;98605.59;1086765;54;20150;-81
2022/04/09 01:11:03;;;;;;;3.00;1.33;;;;;;;2.26;82.96;98609.94;1087480;39;20575;-79
2022/04/09 01:12:08;;;;;;;2.78;1.23;;;;;;;2.45;82.47;98616.31;1087085;54;20805;-81
2022/04/09 01:13:09;;;;;;;2.65;1.20;;;;;;;2.53;82.24;98616.50;1092271;31;20745;-80
2022/04/09 01:14:14;;;;;;;3.10;1.50;;;;;;;2.55;82.01;98626.91;1086779;54;20034;-81
2022/04/09 01:15:16;;;;;;;3.30;1.20;;;;;;;2.57;82.04;98636.38;1087075;54;20094;-81
2022/04/09 01:16:22;;;;;;;3.15;1.40;;;;;;;2.56;82.35;98634.69;1087000;54;20954;-80
2022/04/09 01:17:23;;;;;;;4.05;2.10;;;;;;;2.27;82.52;98639.75;1087306;54;21116;-81
2022/04/09 01:18:28;;;;;;;3.13;1.40;;;;;;;2.37;82.59;98643.31;1087520;54;20785;-80
2022/04/09 01:19:29;;;;;;;3.05;1.60;;;;;;;2.30;82.84;98642.97;1087430;54;20038;-81
2022/04/09 01:20:33;;;;;;;3.53;1.45;;;;;;;2.41;82.58;98647.34;1087473;54;20066;-80
2022/04/09 01:21:42;;;;;;;2.92;1.40;;;;;;;2.30;82.88;98642.97;1087247;54;20054;-80
2022/04/09 01:22:47;;;;;;;3.00;1.30;;;;;;;2.46;82.25;98646.97;1087536;54;20679;-81
2022/04/09 01:23:52;;;;;;;2.80;1.40;;;;;;;2.41;82.50;98650.00;1087659;54;20059;-81
2022/04/09 01:24:53;;;;;;;2.88;1.38;;;;;;;2.43;82.50;98652.53;1087302;54;20046;-80
2022/04/09 01:26:02;;;;;;;3.35;1.50;;;;;;;2.36;82.63;98654.81;1087293;54;20034;-80
2022/04/09 01:27:04;;;;;;;3.28;1.70;;;;;;;2.28;82.62;98658.09;1087345;54;20552;-80
2022/04/09 01:28:08;;;;;;;3.30;1.60;;;;;;;2.40;82.57;98663.31;1087173;54;20109;-80
2022/04/09 01:29:10;;;;;;;3.60;1.80;;;;;;;2.49;82.26;98667.84;1087893;39;20456;-80
2022/04/09 01:30:15;;;;;;;3.20;1.80;;;;;;;2.32;82.52;98672.69;1087250;54;20038;-80
2022/04/09 01:31:24;;;;;;;3.05;1.55;;;;;;;2.50;82.45;98677.44;1087455;54;20038;-79
2022/04/09 01:32:25;;;;;;;4.53;1.73;;;;;;;2.44;82.32;98680.59;1087260;54;20023;-80
2022/04/09 01:33:29;;;;;;;3.03;1.58;;;;;;;2.43;82.19;98685.00;1086815;54;20057;-79
2022/04/09 01:34:32;;;;;;;3.22;1.77;;;;;;;2.33;82.59;98698.13;1086889;54;20065;-79
2022/04/09 01:35:36;;;;;;;3.65;1.75;;;;;;;2.33;82.51;98700.75;1087326;54;21039;-80
2022/04/09 01:36:37;;;;;;;3.08;1.58;;;;;;;2.15;82.82;98703.06;1087606;54;20042;-79
2022/04/09 01:37:42;;;;;;;3.17;1.63;;;;;;;2.18;82.81;98710.75;1087775;54;20034;-79
2022/04/09 01:38:48;;;;;;;3.95;2.10;;;;;;;2.21;83.08;98714.09;1087635;54;20035;-80
2022/04/09 01:39:50;;;;;;;3.97;2.30;;;;;;;2.07;83.13;98717.84;1087620;54;20038;-80
2022/04/09 01:40:54;;;;;;;3.92;2.20;;;;;;;2.13;83.33;98714.72;1087806;54;20137;-80
2022/04/09 01:41:56;;;;;;;3.70;2.20;;;;;;;2.01;83.64;98712.09;1087254;54;20046;-79
2022/04/09 01:43:00;;;;;;;4.10;2.38;;;;;;;1.99;83.56;98724.56;1088021;54;20038;-80
2022/04/09 01:44:03;;;;;;;3.65;2.10;;;;;;;1.91;84.06;98734.06;1092460;46;20035;-80
2022/04/09 01:45:10;;;;;;;5.47;2.50;;;;;;;1.87;83.79;98742.19;1088436;39;20662;-79
2022/04/09 01:46:12;;;;;;;3.80;2.40;;;;;;;2.00;83.77;98747.31;1089965;46;20054;-79
2022/04/09 01:47:16;;;;;;;4.05;2.45;;;;;;;1.93;84.06;98750.59;1088419;54;20026;-80
2022/04/09 01:48:18;;;;;;;4.13;2.67;;;;;;;1.99;83.75;98743.00;1088330;54;20034;-80
2022/04/09 01:49:22;;;;;;;4.07;2.38;;;;;;;2.22;83.11;98745.63;1088105;54;20030;-79
2022/04/09 01:50:26;;;;;;;3.78;2.22;;;;;;;2.28;82.61;98742.47;1087935;54;20058;-79
2022/04/09 01:51:30;;;;;;;4.40;2.92;;;;;;;2.28;83.17;98746.94;1087823;54;20030;-78
2022/04/09 01:52:31;;;;;;;5.18;3.20;;;;;;;2.12;83.27;98749.94;1088010;54;20057;-79
2022/04/09 01:53:38;;;;;;;4.88;3.45;;;;;;;2.00;83.64;98757.03;1088180;54;20030;-79
2022/04/09 01:54:42;;;;;;;5.18;3.40;;;;;;;2.12;83.48;98755.22;1087906;54;20605;-79
2022/04/09 01:55:46;;;;;;;6.50;3.83;;;;;;;2.12;83.42;98763.13;1087871;54;20060;-79
2022/04/09 01:56:48;;;;;;;5.50;3.70;;;;;;;2.24;83.16;98761.31;1087584;54;20039;-79
2022/04/09 01:57:52;;;;;;;10.82;5.60;;;;;;;2.16;83.24;98772.50;1087815;54;20049;-79
2022/04/09 01:58:54;;;;;;;5.10;3.83;;;;;;;2.14;83.22;98766.50;1087873;54;20026;-79
2022/04/09 01:59:58;;;;;;;5.72;4.43;;;;;;;1.97;83.55;98779.22;1087950;54;20026;-79
2022/04/09 02:00:59;;;;;;;5.70;4.25;;;;;;;1.92;83.93;98778.72;1087615;54;20038;-80
2022/04/09 02:02:05;;;;;;;6.75;4.88;;;;;;;1.82;84.27;98775.13;1087368;54;20046;-79
2022/04/09 02:03:08;;;;;;;6.40;4.72;;;;;;;1.88;84.50;98779.94;1087389;54;20046;-81
2022/04/09 02:04:12;;;;;;;5.80;4.40;;;;;;;2.01;83.87;98778.00;1087651;54;20038;-79
2022/04/09 02:05:14;;;;;;;7.65;5.05;;;;;;;1.91;84.04;98781.50;1087457;54;20110;-79
2022/04/09 02:06:19;;;;;;;6.38;4.88;;;;;;;1.99;84.16;98784.38;1087678;54;20038;-80
2022/04/09 02:07:20;;;;;;;7.45;5.05;;;;;;;2.02;84.00;98792.03;1087646;54;20034;-78
2022/04/09 02:08:25;;;;;;;6.70;5.35;;;;;;;1.87;84.33;98789.63;1087875;54;20034;-79
2022/04/09 02:09:26;;;;;;;6.88;4.85;;;;;;;2.01;84.19;98795.63;1087809;54;20034;-79
2022/04/09 02:10:39;;;;;;;7.32;6.07;;;;;;;2.02;84.33;98802.59;1088275;54;20018;-80
2022/04/09 02:11:41;;;;;;;8.20;6.25;;;;;;;1.84;84.84;98796.94;1088458;54;20050;-80
2022/04/09 02:12:46;;;;;;;7.78;5.90;;;;;;;1.61;85.58;98799.56;1088380;54;20033;-80
2022/04/09 02:13:48;;;;;;;8.93;6.75;;;;;;;1.83;85.11;98803.16;1087724;54;20030;-79
2022/04/09 02:14:52;;;;;;;9.35;7.47;;;;;;;1.66;85.51;98800.06;1087554;54;20042;-80
2022/04/09 02:15:54;;;;;;;8.32;6.97;;;;;;;1.61;85.64;98807.47;1088012;54;20019;-80
2022/04/09 02:16:58;;;;;;;8.35;6.97;;;;;;;1.84;85.41;98804.84;1087825;54;20038;-79
2022/04/09 02:17:59;;;;;;;7.82;6.35;;;;;;;1.95;84.65;98812.75;1087817;54;20018;-80
2022/04/09 02:19:03;;;;;;;9.50;7.28;;;;;;;1.95;84.88;98818.03;1087760;54;20030;-80
2022/04/09 02:20:08;;;;;;;8.52;6.65;;;;;;;2.00;84.52;98810.59;1087945;54;20597;-79
2022/04/09 02:21:13;;;;;;;8.57;7.10;;;;;;;2.06;84.36;98817.19;1087598;54;20114;-79
2022/04/09 02:22:14;;;;;;;8.93;6.85;;;;;;;2.10;84.47;98820.41;1087565;54;20078;-80
2022/04/09 02:23:18;;;;;;;7.57;5.40;;;;;;;2.20;83.97;98823.19;1088076;54;20033;-79
2022/04/09 02:24:20;;;;;;;8.65;6.90;;;;;;;2.18;84.23;98823.28;1087908;54;20041;-80
2022/04/09 02:25:24;;;;;;;9.00;7.53;;;;;;;2.16;84.08;98830.50;1087617;54;20041;-79
2022/04/09 02:26:28;;;;;;;9.30;7.32;;;;;;;2.16;84.06;98835.78;1087664;54;20038;-79
2022/04/09 02:27:32;;;;;;;10.48;8.38;;;;;;;2.20;84.18;98841.66;1088003;54;20031;-78
2022/04/09 02:28:34;;;;;;;12.07;9.20;;;;;;;1.95;84.70;98841.75;1088066;54;20023;-80
2022/04/09 02:29:39;;;;;;;10.52;8.48;;;;;;;1.88;84.90;98853.75;1087811;54;20042;-79
2022/04/09 02:30:43;;;;;;;9.93;8.20;;;;;;;2.03;84.57;98857.81;1087713;54;20018;-80
2022/04/09 02:31:44;;;;;;;10.05;8.52;;;;;;;2.13;84.61;98862.38;1087475;54;20026;-80
2022/04/09 02:32:51;;;;;;;11.20;8.55;;;;;;;2.21;84.12;98857.34;1087619;54;20042;-80
2022/04/09 02:33:53;;;;;;;11.02;8.55;;;;;;;2.15;84.22;98868.38;1087452;54;20015;-80
2022/04/09 02:34:58;;;;;;;11.93;9.43;;;;;;;2.17;84.47;98867.28;1087326;54;20038;-79
2022/04/09 02:35:59;;;;;;;12.15;9.57;;;;;;;2.23;84.45;98870.38;1087752;54;20042;-80
2022/04/09 02:37:05;;;;;;;11.23;8.95;;;;;;;2.30;84.17;98877.72;1087841;54;20107;-80
2022/04/09 02:38:08;;;;;;;11.55;8.45;;;;;;;2.30;83.86;98880.34;1088181;54;20088;-79
2022/04/09 02:39:13;;;;;;;11.75;9.40;;;;;;;2.05;84.32;98884.06;1088191;54;20073;-80
2022/04/09 02:40:15;;;;;;;11.02;8.73;;;;;;;1.88;84.80;98888.00;1088118;54;20061;-80
2022/04/09 02:41:19;;;;;;;11.13;8.95;;;;;;;1.97;85.21;98884.66;1088234;54;20698;-80
2022/04/09 02:42:23;;;;;;;11.18;8.90;;;;;;;2.14;84.73;98891.25;1087763;54;20031;-80
2022/04/09 02:43:27;;;;;;;10.70;8.52;;;;;;;2.16;84.69;98893.78;1087958;54;20022;-79
2022/04/09 02:44:30;;;;;;;11.10;8.52;;;;;;;2.23;84.20;98892.34;1088140;54;20050;-79
2022/04/09 02:45:34;;;;;;;10.65;8.80;;;;;;;2.08;84.70;98909.38;1088207;54;20046;-81
2022/04/09 02:46:37;;;;;;;9.60;7.97;;;;;;;2.12;84.87;98902.88;1088257;54;20038;-79
2022/04/09 02:47:41;;;;;;;10.18;8.10;;;;;;;2.11;84.57;98909.09;1088053;54;20058;-79
2022/04/09 02:48:43;;;;;;;10.18;8.05;;;;;;;2.05;85.12;98914.88;1088227;54;20606;-80
2022/04/09 02:49:47;;;;;;;9.40;7.70;;;;;;;1.98;85.31;98915.34;1088179;54;20034;-80
2022/04/09 02:50:49;;;;;;;9.32;7.32;;;;;;;1.94;85.45;98920.94;1088126;54;20057;-79
2022/04/09 02:51:53;;;;;;;10.32;7.32;;;;;;;1.95;85.60;98927.91;1088162;54;20030;-79
2022/04/09 02:52:54;;;;;;;9.55;7.47;;;;;;;1.84;85.66;98931.34;1088217;54;20050;-80
2022/04/09 02:53:59;;;;;;;9.00;6.68;;;;;;;1.87;85.92;98933.78;1088169;54;20042;-79
2022/04/09 02:55:00;;;;;;;8.68;6.38;;;;;;;2.00;85.49;98931.03;1088161;54;20045;-79
2022/04/09 02:56:05;;;;;;;7.70;6.10;;;;;;;1.96;85.59;98929.56;1088385;54;20034;-79
2022/04/09 02:57:06;;;;;;;7.45;5.93;;;;;;;1.95;85.43;98939.28;1088405;54;20713;-78
2022/04/09 02:58:13;;;;;;;7.60;5.93;;;;;;;2.08;85.23;98944.47;1092163;46;20035;-78
2022/04/09 02:59:18;;;;;;;6.97;5.32;;;;;;;2.15;85.10;98944.84;1088640;39;20445;-79
2022/04/09 03:00:23;;;;;;;8.15;5.80;;;;;;;2.24;84.68;98957.31;1087842;54;20035;-79
2022/04/09 03:01:27;;;;;;;7.55;5.90;;;;;;;2.34;84.35;98949.53;1087686;54;20046;-79
2022/04/09 03:02:34;;;;;;;7.55;5.22;;;;;;;2.42;84.16;98956.84;1087733;54;20049;-79
2022/04/09 03:03:42;;;;;;;7.78;6.15;;;;;;;2.31;84.17;98957.69;1087550;54;20034;-80
2022/04/09 03:04:44;;;;;;;8.05;5.53;;;;;;;2.01;84.81;98957.28;1087346;54;20678;-79
2022/04/09 03:05:50;;;;;;;7.13;4.93;;;;;;;1.99;85.05;98964.44;1087456;54;20271;-78
2022/04/09 03:06:52;;;;;;;7.30;5.40;;;;;;;1.99;85.37;98967.09;1088074;46;20085;-78
2022/04/09 03:07:57;;;;;;;6.95;4.85;;;;;;;2.02;85.26;98971.31;1087663;54;20038;-79
2022/04/09 03:08:58;;;;;;;6.35;4.68;;;;;;;2.10;85.41;98968.06;1087686;54;20045;-78
2022/04/09 03:10:03;;;;;;;6.88;4.93;;;;;;;2.17;84.87;98983.31;1087593;54;20634;-79
2022/04/09 03:11:04;;;;;;;6.35;4.78;;;;;;;2.09;85.03;98985.69;1087925;54;20638;-78
2022/04/09 03:12:09;;;;;;;6.13;4.25;;;;;;;2.13;85.20;98988.94;1088722;31;20666;-79
2022/04/09 03:13:13;;;;;;;7.43;4.15;;;;;;;2.11;84.91;98996.97;1088378;46;20041;-79
2022/04/09 03:14:30;;;;;;;6.28;4.28;;;;;;;2.25;84.38;98988.00;1087900;54;20038;-78
2022/04/09 03:15:32;;;;;;;5.70;3.53;;;;;;;2.39;84.09;98983.47;1087918;54;20042;-79
2022/04/09 03:16:37;;;;;;;5.03;3.38;;;;;;;2.46;83.83;98992.56;1088860;46;20022;-79
2022/04/09 03:17:39;;;;;;;5.93;3.83;;;;;;;2.39;83.94;98986.09;1088083;54;20026;-79
2022/04/09 03:18:44;;;;;;;4.50;3.10;;;;;;;2.38;83.91;98989.69;1090670;46;20045;-80
2022/04/09 03:19:45;;;;;;;5.10;3.60;;;;;;;2.38;83.87;98992.31;1091879;46;20034;-79
2022/04/09 03:20:51;;;;;;;5.22;3.38;;;;;;;2.29;83.94;98999.16;1088144;54;20019;-79
2022/04/09 03:21:52;;;;;;;4.63;3.10;;;;;;;2.24;84.38;99015.34;1088071;54;20038;-79
2022/04/09 03:22:56;;;;;;;5.45;3.45;;;;;;;2.39;84.08;99005.41;1087584;54;20016;-79
2022/04/09 03:23:58;;;;;;;4.95;3.10;;;;;;;2.42;83.85;99005.16;1087680;54;20061;-79
2022/04/09 03:25:02;;;;;;;5.03;3.05;;;;;;;2.43;83.89;99013.94;1087480;54;20034;-78
2022/04/09 03:26:05;;;;;;;4.25;2.78;;;;;;;2.59;83.31;99014.41;1087292;54;20041;-79
2022/04/09 03:27:09;;;;;;;5.10;3.03;;;;;;;2.57;83.32;99010.22;1087755;54;20038;-79
2022/04/09 03:28:13;;;;;;;4.53;2.83;;;;;;;2.55;82.91;99018.25;1087949;54;20034;-80
2022/04/09 03:29:17;;;;;;;4.43;2.85;;;;;;;2.60;83.01;99021.38;1087976;54;20042;-80
2022/04/09 03:30:19;;;;;;;4.82;2.42;;;;;;;2.69;82.83;99019.84;1087876;54;20042;-80
2022/04/09 03:31:23;;;;;;;4.20;2.53;;;;;;;2.68;82.88;99019.94;1087964;54;20030;-80
2022/04/09 03:32:24;;;;;;;6.75;3.10;;;;;;;2.59;83.03;99022.34;1088053;54;20780;-78
2022/04/09 03:33:29;;;;;;;4.45;2.97;;;;;;;2.70;82.72;99026.78;1088037;54;20034;-79
2022/04/09 03:34:30;;;;;;;4.70;3.00;;;;;;;2.64;82.67;99025.47;1091519;39;20507;-80
2022/04/09 03:35:35;;;;;;;4.50;2.97;;;;;;;2.65;82.80;99034.22;1087815;54;20049;-80
2022/04/09 03:36:40;;;;;;;4.82;2.70;;;;;;;2.61;82.62;99036.25;1087969;54;20057;-79
2022/04/09 03:37:41;;;;;;;4.82;3.17;;;;;;;2.42;83.09;99047.38;1087723;54;20046;-79
2022/04/09 03:38:46;;;;;;;4.55;2.80;;;;;;;2.49;83.35;99038.06;1087576;54;20034;-79
2022/04/09 03:39:53;;;;;;;4.88;3.20;;;;;;;2.32;83.42;99047.25;1087364;54;20042;-79
2022/04/09 03:40:58;;;;;;;7.28;3.42;;;;;;;2.36;83.66;99049.66;1087203;54;20030;-79
2022/04/09 03:41:59;;;;;;;4.85;3.13;;;;;;;2.48;83.22;99049.56;1087255;54;20039;-80
2022/04/09 03:43:04;;;;;;;5.90;3.15;;;;;;;2.45;83.40;99051.59;1087671;54;20053;-79
2022/04/09 03:44:08;;;;;;;5.20;3.40;;;;;;;2.34;83.56;99055.03;1087648;54;20034;-80
2022/04/09 03:45:12;;;;;;;5.07;3.20;;;;;;;2.36;83.66;99058.41;1087662;54;20108;-80
2022/04/09 03:46:14;;;;;;;5.00;3.58;;;;;;;2.31;83.88;99056.13;1087620;54;20061;-79
2022/04/09 03:47:18;;;;;;;5.53;3.60;;;;;;;2.24;83.85;99057.53;1087823;54;20611;-79
2022/04/09 03:48:19;;;;;;;5.40;3.25;;;;;;;2.23;83.96;99060.28;1087951;54;20035;-80
2022/04/09 03:49:24;;;;;;;5.53;3.20;;;;;;;2.24;84.03;99076.00;1087627;54;20034;-79
2022/04/09 03:50:25;;;;;;;5.55;3.72;;;;;;;2.19;84.28;99067.56;1087794;54;20042;-78
2022/04/09 03:51:29;;;;;;;5.88;3.80;;;;;;;2.28;84.13;99073.97;1087946;54;20799;-78
2022/04/09 03:52:31;;;;;;;6.30;4.30;;;;;;;2.16;84.43;99078.38;1087980;54;20066;-79
2022/04/09 03:53:35;;;;;;;4.85;3.50;;;;;;;2.21;84.13;99070.94;1088499;39;20629;-79
2022/04/09 03:54:38;;;;;;;6.07;3.47;;;;;;;2.26;84.02;99079.38;1088068;54;20018;-80
2022/04/09 03:55:42;;;;;;;5.40;3.60;;;;;;;2.21;84.07;99075.41;1088091;54;20042;-80
2022/04/09 03:56:43;;;;;;;6.50;3.63;;;;;;;2.13;84.34;99078.59;1088154;54;20042;-80
2022/04/09 03:57:48;;;;;;;8.50;3.80;;;;;;;2.09;84.61;99096.44;1092046;39;20757;-80
2022/04/09 03:58:50;;;;;;;5.40;3.92;;;;;;;2.14;84.36;99090.81;1088182;54;20065;-80
2022/04/09 03:59:57;;;;;;;6.43;3.85;;;;;;;2.09;84.68;99098.22;1088292;54;20035;-80
2022/04/09 04:01:01;;;;;;;6.30;4.10;;;;;;;2.15;84.45;99100.41;1089952;47;20023;-78
2022/04/09 04:02:06;;;;;;;7.43;4.00;;;;;;;2.10;84.56;99105.19;1089969;47;20015;-80
2022/04/09 04:03:09;;;;;;;5.72;3.75;;;;;;;2.14;84.69;99102.19;1088369;54;20070;-80
2022/04/09 04:04:14;;;;;;;5.90;3.42;;;;;;;2.15;84.49;99103.88;1088982;47;20025;-80
2022/04/09 04:05:19;;;;;;;5.32;3.40;;;;;;;2.24;84.25;99109.44;1088226;54;20038;-79
2022/04/09 04:06:21;;;;;;;6.40;3.60;;;;;;;2.12;84.39;99111.19;1088243;54;20015;-79
2022/04/09 04:07:26;;;;;;;5.63;3.83;;;;;;;2.10;84.61;99115.72;1089981;47;20041;-79
2022/04/09 04:08:28;;;;;;;6.72;4.20;;;;;;;2.17;84.53;99127.53;1089094;47;20057;-78
2022/04/09 04:09:32;;;;;;;6.40;4.40;;;;;;;2.12;84.46;99125.22;1087509;54;20027;-80
2022/04/09 04:10:36;;;;;;;5.97;4.38;;;;;;;2.09;84.28;99125.44;1087528;54;20034;-78
2022/04/09 04:11:40;;;;;;;5.38;3.78;;;;;;;1.99;84.63;99127.91;1088554;39;20618;-80
2022/04/09 04:12:42;;;;;;;6.22;4.60;;;;;;;1.97;84.85;99131.63;1087702;54;20042;-80
2022/04/09 04:13:48;;;;;;;5.88;4.07;;;;;;;2.18;84.45;99123.91;1087584;54;20046;-79
2022/04/09 04:14:49;;;;;;;6.07;4.50;;;;;;;2.16;84.25;99125.84;1087439;54;20031;-79
2022/04/09 04:15:56;;;;;;;6.47;4.22;;;;;;;2.16;84.31;99136.41;1087925;39;20596;-79
2022/04/09 04:16:58;;;;;;;6.45;3.88;;;;;;;2.04;84.21;99135.47;1088057;54;20053;-79
2022/04/09 04:18:02;;;;;;;6.90;4.85;;;;;;;2.10;84.53;99134.19;1090019;39;20696;-78
2022/04/09 04:19:04;;;;;;;7.22;4.30;;;;;;;2.11;84.22;99134.09;1087986;54;20043;-80
2022/04/09 04:20:10;;;;;;;6.85;4.40;;;;;;;2.08;84.31;99133.47;1087873;54;20022;-80
2022/04/09 04:21:12;;;;;;;8.38;4.95;;;;;;;1.96;84.73;99141.34;1088329;54;20708;-80
2022/04/09 04:22:16;;;;;;;7.53;5.00;;;;;;;1.96;84.81;99148.38;1088434;54;20023;-78
2022/04/09 04:23:18;;;;;;;6.82;4.32;;;;;;;2.14;84.42;99140.94;1088570;31;20805;-80
2022/04/09 04:24:23;;;;;;;6.50;4.93;;;;;;;2.16;84.18;99141.66;1088354;54;20729;-79
2022/04/09 04:25:25;;;;;;;6.30;4.57;;;;;;;2.12;84.45;99150.75;1088357;54;20093;-79
2022/04/09 04:26:29;;;;;;;7.53;4.35;;;;;;;2.15;84.08;99148.72;1088320;54;20042;-78
2022/04/09 04:27:32;;;;;;;9.15;4.85;;;;;;;2.12;84.17;99158.66;1088325;54;20025;-79
2022/04/09 04:28:36;;;;;;;7.90;4.90;;;;;;;2.06;84.48;99161.75;1088378;54;20018;-80
2022/04/09 04:29:38;;;;;;;6.63;4.20;;;;;;;2.10;84.02;99160.56;1088150;54;20045;-79
2022/04/09 04:30:43;;;;;;;8.02;4.80;;;;;;;2.16;84.03;99163.59;1088192;54;20038;-80
2022/04/09 04:31:47;;;;;;;5.70;4.22;;;;;;;2.20;83.95;99161.56;1088321;39;20531;-80
2022/04/09 04:32:52;;;;;;;6.65;4.30;;;;;;;2.28;83.59;99161.84;1088236;54;20034;-80
2022/04/09 04:33:57;;;;;;;5.85;4.10;;;;;;;2.23;83.32;99166.63;1088255;54;20018;-80
2022/04/09 04:35:01;;;;;;;7.88;4.90;;;;;;;2.09;83.80;99172.91;1089275;39;20575;-79
2022/04/09 04:36:04;;;;;;;6.40;4.75;;;;;;;2.16;83.71;99160.13;1088344;54;20034;-79
2022/04/09 04:37:08;;;;;;;7.20;4.72;;;;;;;2.14;83.76;99164.66;1088311;54;20030;-79
2022/04/09 04:38:12;;;;;;;7.22;5.00;;;;;;;2.15;83.86;99164.53;1088378;54;20105;-78
2022/04/09 04:39:17;;;;;;;7.60;5.13;;;;;;;2.02;84.08;99174.31;1088254;54;20027;-79
2022/04/09 04:40:21;;;;;;;6.95;4.75;;;;;;;2.21;83.64;99179.06;1088733;46;20065;-79
2022/04/09 04:41:23;;;;;;;7.75;5.32;;;;;;;2.16;83.39;99181.22;1088313;54;20046;-79
2022/04/09 04:42:28;;;;;;;7.82;4.70;;;;;;;2.20;83.58;99176.56;1087928;54;20039;-78
2022/04/09 04:43:30;;;;;;;6.50;4.63;;;;;;;2.25;83.60;99174.41;1088201;54;20037;-79
2022/04/09 04:44:35;;;;;;;7.88;5.13;;;;;;;2.19;83.70;99178.34;1088310;54;20038;-79
2022/04/09 04:45:37;;;;;;;6.90;4.80;;;;;;;2.24;83.42;99186.78;1088232;54;20034;-79
2022/04/09 04:46:42;;;;;;;8.10;4.93;;;;;;;2.20;83.43;99190.56;1088222;54;20670;-79
2022/04/09 04:47:50;;;;;;;7.47;5.25;;;;;;;2.25;83.21;99192.88;1088311;54;20035;-79
2022/04/09 04:48:52;;;;;;;7.13;4.95;;;;;;;2.27;83.20;99185.69;1088035;54;20041;-79
2022/04/09 04:49:56;;;;;;;7.45;5.00;;;;;;;2.22;83.28;99188.69;1088245;46;20081;-78
2022/04/09 04:50:58;;;;;;;6.90;5.03;;;;;;;2.27;83.32;99196.25;1088223;54;20049;-79
2022/04/09 04:52:03;;;;;;;7.65;4.95;;;;;;;2.27;83.11;99199.72;1088254;54;20034;-79
2022/04/09 04:53:06;;;;;;;7.50;5.43;;;;;;;2.15;83.55;99212.00;1088357;54;20054;-79
2022/04/09 04:54:10;;;;;;;7.30;5.05;;;;;;;2.24;83.16;99207.88;1088205;54;20041;-79
2022/04/09 04:55:12;;;;;;;8.50;4.93;;;;;;;2.15;83.47;99205.91;1088265;54;20682;-79
2022/04/09 04:56:16;;;;;;;7.85;5.15;;;;;;;2.05;83.80;99212.78;1088298;54;20053;-80
2022/04/09 04:57:18;;;;;;;7.97;5.78;;;;;;;1.96;84.04;99215.16;1088411;54;20030;-80
2022/04/09 04:58:23;;;;;;;7.75;5.53;;;;;;;1.89;84.10;99211.25;1088364;54;20034;-79
2022/04/09 04:59:24;;;;;;;9.90;5.72;;;;;;;1.94;84.30;99214.41;1088352;54;20026;-79
2022/04/09 05:00:29;;;;;;;7.68;5.18;;;;;;;1.96;84.35;99220.41;1088218;54;20086;-79
2022/04/09 05:01:31;;;;;;;9.18;6.07;;;;;;;1.94;84.36;99230.22;1088335;54;20035;-78
2022/04/09 05:02:35;;;;;;;7.43;5.78;;;;;;;2.12;83.87;99235.13;1088303;54;20021;-79
2022/04/09 05:03:40;;;;;;;7.85;5.07;;;;;;;2.15;83.59;99224.38;1088365;54;20049;-79
2022/04/09 05:04:44;;;;;;;8.55;6.03;;;;;;;1.99;83.87;99233.34;1087918;54;20061;-80
2022/04/09 05:05:45;;;;;;;7.68;5.93;;;;;;;2.00;83.79;99236.84;1087985;54;20066;-80
2022/04/09 05:06:50;;;;;;;8.23;6.38;;;;;;;1.89;84.41;99234.97;1087995;54;20038;-80
2022/04/09 05:07:53;;;;;;;7.85;5.97;;;;;;;1.90;84.43;99234.03;1087988;54;20737;-80
2022/04/09 05:08:57;;;;;;;9.80;6.30;;;;;;;1.84;84.32;99237.09;1087864;54;20034;-81
2022/04/09 05:09:59;;;;;;;8.68;6.57;;;;;;;1.87;84.09;99237.72;1087957;54;20030;-79
2022/04/09 05:11:04;;;;;;;8.57;6.28;;;;;;;1.83;84.54;99240.69;1088005;54;20046;-78
2022/04/09 05:12:06;;;;;;;10.70;6.30;;;;;;;1.96;84.41;99241.50;1088203;54;20693;-79
2022/04/09 05:13:10;;;;;;;9.30;6.20;;;;;;;2.10;83.82;99242.31;1088385;54;20031;-79
2022/04/09 05:14:12;;;;;;;9.73;6.05;;;;;;;2.05;83.92;99244.44;1088492;54;20061;-79
2022/04/09 05:15:18;;;;;;;9.75;6.70;;;;;;;1.91;84.18;99245.41;1088323;54;20086;-80
2022/04/09 05:16:20;;;;;;;12.55;6.50;;;;;;;1.94;84.19;99250.44;1088324;54;20045;-79
2022/04/09 05:17:25;;;;;;;9.27;6.60;;;;;;;1.86;84.50;99251.03;1088398;54;20054;-79
2022/04/09 05:18:29;;;;;;;8.45;6.53;;;;;;;1.86;84.87;99245.75;1088342;54;20053;-81
2022/04/09 05:19:33;;;;;;;9.93;6.90;;;;;;;1.83;84.76;99256.50;1088395;39;20075;-81
2022/04/09 05:20:38;;;;;;;8.82;6.75;;;;;;;1.82;84.57;99249.53;1088381;54;20034;-82
2022/04/09 05:21:39;;;;;;;10.82;7.00;;;;;;;1.83;84.77;99253.88;1088268;54;20030;-81
2022/04/09 05:22:46;;;;;;;9.48;6.70;;;;;;;1.81;85.04;99261.03;1089305;39;20657;-79
2022/04/09 05:23:50;;;;;;;10.35;7.60;;;;;;;1.91;84.83;99259.44;1088027;54;20046;-78
2022/04/09 05:24:52;;;;;;;9.45;6.57;;;;;;;1.94;84.65;99255.72;1088383;54;20042;-80
2022/04/09 05:25:56;;;;;;;10.05;7.30;;;;;;;1.91;84.80;99262.06;1088327;54;20034;-81